createdAt,value
2022-11-02T00:01:43.565Z,99306.19
2022-11-02T00:04:11.286Z,99307.06
2022-11-02T00:06:38.682Z,99305.09
2022-11-02T00:09:05.961Z,99300.91
2022-11-02T00:11:33.519Z,99299.28
2022-11-02T00:14:00.766Z,99290.00
2022-11-02T00:16:28.083Z,99290.34
2022-11-02T00:18:59.383Z,99294.34
2022-11-02T00:21:27.771Z,99289.19
2022-11-02T00:23:58.542Z,99287.06
2022-11-02T00:26:29.870Z,99284.00
2022-11-02T00:28:58.120Z,99287.50
2022-11-02T00:31:25.399Z,99296.97
2022-11-02T00:33:52.887Z,99296.88
2022-11-02T00:36:20.931Z,99288.94
2022-11-02T00:38:48.190Z,99301.06
2022-11-02T00:41:17.170Z,99297.84
2022-11-02T00:43:44.432Z,99302.28
2022-11-02T00:46:11.686Z,99295.75
2022-11-02T00:48:38.959Z,99299.00
2022-11-02T00:51:06.414Z,99298.59
2022-11-02T00:53:33.685Z,99299.72
2022-11-02T00:56:00.978Z,99300.53
2022-11-02T00:58:28.238Z,99309.91
2022-11-02T01:00:56.556Z,99307.22
2022-11-02T01:03:25.094Z,99306.25
2022-11-02T01:05:52.346Z,99301.41
2022-11-02T01:08:19.605Z,99295.78
2022-11-02T01:10:48.342Z,99292.56
2022-11-02T01:13:16.318Z,99296.16
2022-11-02T01:15:43.571Z,99290.47
2022-11-02T01:18:10.847Z,99290.00
2022-11-02T01:20:38.150Z,99306.72
2022-11-02T01:23:05.476Z,99296.22
2022-11-02T01:25:33.536Z,99288.66
2022-11-02T01:28:02.010Z,99277.94
2022-11-02T01:30:29.531Z,99281.63
2022-11-02T01:32:56.797Z,99285.00
2022-11-02T01:35:24.062Z,99280.50
2022-11-02T01:37:51.326Z,99285.66
2022-11-02T01:40:19.395Z,99280.06
2022-11-02T01:42:46.668Z,99280.50
2022-11-02T01:45:15.007Z,99279.03
2022-11-02T01:47:49.212Z,99269.44
2022-11-02T01:50:27.392Z,99263.38
2022-11-02T01:52:54.982Z,99270.38
2022-11-02T01:55:30.291Z,99264.88
2022-11-02T01:58:10.666Z,99275.38
2022-11-02T02:00:39.338Z,99267.53
2022-11-02T02:03:19.183Z,99251.63
2022-11-02T02:06:00.811Z,99258.41
2022-11-02T02:08:29.504Z,99253.38
2022-11-02T02:10:58.911Z,99267.84
2022-11-02T02:13:28.486Z,99258.84
2022-11-02T02:16:52.976Z,99255.44
2022-11-02T02:20:07.949Z,99261.41
2022-11-02T02:24:03.887Z,99274.81
2022-11-02T02:27:35.542Z,99257.25
2022-11-02T02:30:10.980Z,99267.28
2022-11-02T02:33:14.061Z,99260.06
2022-11-02T02:36:00.036Z,99258.47
2022-11-02T02:39:04.014Z,99249.63
2022-11-02T02:41:47.730Z,99274.28
2022-11-02T02:44:23.891Z,99271.16
2022-11-02T02:47:05.023Z,99270.25
2022-11-02T02:49:53.438Z,99269.19
2022-11-02T02:52:23.916Z,99270.63
2022-11-02T02:54:55.907Z,99270.91
2022-11-02T02:57:26.630Z,99277.00
2022-11-02T02:59:55.112Z,99275.38
2022-11-02T03:02:34.256Z,99274.28
2022-11-02T03:05:01.826Z,99266.97
2022-11-02T03:07:34.763Z,99274.81
2022-11-02T03:10:22.474Z,99271.75
2022-11-02T03:13:32.410Z,99274.31
2022-11-02T03:16:49.487Z,99266.03
2022-11-02T03:19:45.329Z,99262.31
2022-11-02T03:23:07.408Z,99260.03
2022-11-02T03:26:36.210Z,99277.41
2022-11-02T03:29:33.686Z,99275.72
2022-11-02T03:32:20.779Z,99276.63
2022-11-02T03:35:02.572Z,99279.25
2022-11-02T03:37:55.968Z,99281.06
2022-11-02T03:40:40.583Z,99281.25
2022-11-02T03:43:08.271Z,99280.81
2022-11-02T03:45:54.197Z,99291.34
2022-11-02T03:48:28.239Z,99295.19
2022-11-02T03:50:58.191Z,99303.03
2022-11-02T03:53:42.629Z,99300.41
2022-11-02T03:56:23.007Z,99300.72
2022-11-02T03:58:50.551Z,99304.75
2022-11-02T04:01:20.780Z,99298.25
2022-11-02T04:03:48.667Z,99301.53
2022-11-02T04:06:17.215Z,99308.59
2022-11-02T04:08:49.179Z,99317.34
2022-11-02T04:11:35.426Z,99316.34
2022-11-02T04:14:21.435Z,99318.88
2022-11-02T04:16:48.707Z,99311.53
2022-11-02T04:19:27.888Z,99319.75
2022-11-02T04:22:16.634Z,99313.75
2022-11-02T04:25:02.510Z,99318.41
2022-11-02T04:27:29.818Z,99311.97
2022-11-02T04:29:57.378Z,99313.41
2022-11-02T04:32:43.425Z,99328.75
2022-11-02T04:35:11.019Z,99319.56
2022-11-02T04:38:03.213Z,99320.00
2022-11-02T04:40:30.883Z,99326.25
2022-11-02T04:42:58.138Z,99320.00
2022-11-02T04:45:25.583Z,99327.44
2022-11-02T04:47:52.966Z,99331.72
2022-11-02T04:50:20.225Z,99332.59
2022-11-02T04:52:47.519Z,99331.00
2022-11-02T04:55:14.806Z,99343.56
2022-11-02T04:57:45.891Z,99339.28
2022-11-02T05:00:15.556Z,99346.44
2022-11-02T05:02:43.929Z,99345.47
2022-11-02T05:05:12.552Z,99347.50
2022-11-02T05:07:39.919Z,99342.88
2022-11-02T05:10:07.910Z,99336.38
2022-11-02T05:12:35.210Z,99345.47
2022-11-02T05:15:04.814Z,99346.72
2022-11-02T05:17:32.190Z,99346.25
2022-11-02T05:19:59.454Z,99358.97
2022-11-02T05:22:26.727Z,99356.44
2022-11-02T05:24:54.031Z,99347.69
2022-11-02T05:27:21.386Z,99353.47
2022-11-02T05:29:48.655Z,99356.53
2022-11-02T05:32:15.915Z,99355.53
2022-11-02T05:34:44.991Z,99355.53
2022-11-02T05:37:12.267Z,99355.47
2022-11-02T05:39:39.582Z,99360.53
2022-11-02T05:42:06.879Z,99372.25
2022-11-02T05:44:34.172Z,99365.47
2022-11-02T05:47:01.613Z,99370.66
2022-11-02T05:49:29.164Z,99368.75
2022-11-02T05:51:56.447Z,99364.84
2022-11-02T05:54:24.522Z,99374.59
2022-11-02T05:56:51.787Z,99374.41
2022-11-02T05:59:19.051Z,99379.94
2022-11-02T06:01:46.450Z,99377.28
2022-11-02T06:04:13.842Z,99379.22
2022-11-02T06:06:42.615Z,99382.88
2022-11-02T06:09:10.002Z,99368.41
2022-11-02T06:11:37.305Z,99384.66
2022-11-02T06:14:05.566Z,99391.25
2022-11-02T06:16:32.871Z,99395.91
2022-11-02T06:19:00.226Z,99398.41
2022-11-02T06:21:28.323Z,99401.09
2022-11-02T06:23:55.627Z,99398.66
2022-11-02T06:26:22.890Z,99401.09
2022-11-02T06:28:50.191Z,99411.44
2022-11-02T06:31:17.489Z,99413.59
2022-11-02T06:33:45.750Z,99419.03
2022-11-02T06:36:14.727Z,99424.09
2022-11-02T06:38:42.159Z,99422.88
2022-11-02T06:41:10.335Z,99429.50
2022-11-02T06:43:38.539Z,99429.31
2022-11-02T06:46:06.317Z,99438.69
2022-11-02T06:48:35.645Z,99432.06
2022-11-02T06:51:06.234Z,99437.34
2022-11-02T06:53:33.887Z,99441.63
2022-11-02T06:56:01.399Z,99442.44
2022-11-02T06:58:29.005Z,99445.94
2022-11-02T07:01:09.954Z,99455.13
2022-11-02T07:03:37.336Z,99457.03
2022-11-02T07:06:08.417Z,99465.56
2022-11-02T07:08:40.231Z,99463.81
2022-11-02T07:11:07.511Z,99472.91
2022-11-02T07:13:34.759Z,99471.03
2022-11-02T07:16:02.046Z,99473.72
2022-11-02T07:18:29.305Z,99479.34
2022-11-02T07:20:59.884Z,99487.59
2022-11-02T07:23:27.439Z,99482.56
2022-11-02T07:25:54.838Z,99484.88
2022-11-02T07:28:22.234Z,99489.91
2022-11-02T07:30:50.365Z,99490.34
2022-11-02T07:33:17.767Z,99490.88
2022-11-02T07:35:45.088Z,99496.50
2022-11-02T07:38:14.060Z,99493.72
2022-11-02T07:40:41.445Z,99501.50
2022-11-02T07:43:09.137Z,99500.59
2022-11-02T07:45:36.763Z,99502.72
2022-11-02T07:48:04.184Z,99505.50
2022-11-02T07:50:31.448Z,99505.38
2022-11-02T07:52:59.302Z,99494.59
2022-11-02T07:55:30.883Z,99504.22
2022-11-02T07:58:14.119Z,99500.13
2022-11-02T08:00:42.616Z,99508.66
2022-11-02T08:03:11.965Z,99501.34
2022-11-02T08:05:43.169Z,99510.81
2022-11-02T08:08:23.682Z,99515.47
2022-11-02T08:10:52.647Z,99521.97
2022-11-02T08:13:26.025Z,99518.13
2022-11-02T08:15:54.900Z,99514.56
2022-11-02T08:18:26.932Z,99506.75
2022-11-02T08:20:58.662Z,99523.97
2022-11-02T08:23:27.234Z,99515.66
2022-11-02T08:25:55.578Z,99515.50
2022-11-02T08:28:31.632Z,99523.88
2022-11-02T08:30:59.742Z,99527.25
2022-11-02T08:33:27.378Z,99531.56
2022-11-02T08:35:54.818Z,99519.94
2022-11-02T08:38:22.913Z,99519.06
2022-11-02T08:40:50.253Z,99520.53
2022-11-02T08:43:17.640Z,99528.19
2022-11-02T08:46:14.384Z,99516.00
2022-11-02T08:48:34.012Z,99515.38
2022-11-02T08:51:01.380Z,99514.16
2022-11-02T08:53:28.825Z,99516.41
2022-11-02T08:55:59.346Z,99509.38
2022-11-02T08:58:26.692Z,99530.69
2022-11-02T09:00:55.121Z,99520.34
2022-11-02T09:03:26.762Z,99519.97
2022-11-02T09:06:00.998Z,99520.34
2022-11-02T09:08:29.737Z,99513.34
2022-11-02T09:11:04.642Z,99519.81
2022-11-02T09:13:32.005Z,99507.66
2022-11-02T09:16:00.530Z,99511.31
2022-11-02T09:18:28.048Z,99513.50
2022-11-02T09:20:55.837Z,99511.94
2022-11-02T09:23:24.183Z,99515.59
2022-11-02T09:25:51.537Z,99512.09
2022-11-02T09:28:19.691Z,99511.84
2022-11-02T09:30:47.204Z,99511.38
2022-11-02T09:33:14.513Z,99511.84
2022-11-02T09:35:49.079Z,99510.72
2022-11-02T09:38:21.015Z,99505.53
2022-11-02T09:40:59.479Z,99508.75
2022-11-02T09:44:01.863Z,99494.88
2022-11-02T09:46:40.288Z,99484.84
2022-11-02T09:49:24.219Z,99484.66
2022-11-02T09:51:56.825Z,99497.97
2022-11-02T09:54:50.159Z,99495.97
2022-11-02T09:57:32.999Z,99502.91
2022-11-02T10:00:00.537Z,99494.34
2022-11-02T10:03:12.461Z,99500.38
2022-11-02T10:06:19.292Z,99496.94
2022-11-02T10:09:16.408Z,99488.34
2022-11-02T10:12:13.261Z,99483.28
2022-11-02T10:15:17.168Z,99477.41
2022-11-02T10:17:46.066Z,99475.34
2022-11-02T10:20:50.932Z,99473.63
2022-11-02T10:23:46.071Z,99464.03
2022-11-02T10:26:33.921Z,99469.34
2022-11-02T10:29:41.345Z,99468.94
2022-11-02T10:32:14.483Z,99471.91
2022-11-02T10:34:43.745Z,99466.00
2022-11-02T10:38:17.276Z,99462.66
2022-11-02T10:41:18.236Z,99452.19
2022-11-02T10:44:27.894Z,99452.56
2022-11-02T10:47:24.145Z,99452.19
2022-11-02T10:50:44.657Z,99453.38
2022-11-02T10:53:41.221Z,99448.03
2022-11-02T10:56:32.076Z,99438.69
2022-11-02T10:59:23.766Z,99429.19
2022-11-02T11:01:57.796Z,99436.06
2022-11-02T11:04:29.145Z,99425.16
2022-11-02T11:07:04.510Z,99428.47
2022-11-02T11:09:48.304Z,99430.50
2022-11-02T11:12:37.419Z,99420.22
2022-11-02T11:20:44.579Z,99409.91
2022-11-02T11:23:25.753Z,99410.22
2022-11-02T11:26:06.722Z,99418.06
2022-11-02T11:28:57.939Z,99410.91
2022-11-02T11:31:25.907Z,99414.53
2022-11-02T11:34:00.254Z,99406.25
2022-11-02T11:36:36.407Z,99402.78
2022-11-02T11:39:29.533Z,99401.16
2022-11-02T11:41:58.319Z,99393.63
2022-11-02T11:44:26.321Z,99404.84
2022-11-02T11:46:58.628Z,99398.88
2022-11-02T11:50:08.074Z,99394.88
2022-11-02T11:52:34.612Z,99383.72
2022-11-02T11:55:28.140Z,99394.88
2022-11-02T11:58:31.159Z,99387.28
2022-11-02T12:01:14.529Z,99377.28
2022-11-02T12:04:01.584Z,99379.66
2022-11-02T12:06:58.132Z,99376.44
2022-11-02T12:09:46.594Z,99378.00
2022-11-02T12:13:01.057Z,99374.88
2022-11-02T12:16:03.111Z,99372.03
2022-11-02T12:19:33.857Z,99365.75
2022-11-02T12:22:43.790Z,99364.25
2022-11-02T12:25:46.912Z,99349.38
2022-11-02T12:28:31.688Z,99348.09
2022-11-02T12:31:40.176Z,99340.84
2022-11-02T12:35:23.161Z,99345.88
2022-11-02T12:38:51.128Z,99343.47
2022-11-02T12:42:03.881Z,99336.19
2022-11-02T12:45:22.687Z,99337.09
2022-11-02T12:48:06.279Z,99330.63
2022-11-02T12:51:24.555Z,99320.66
2022-11-02T12:54:14.778Z,99316.91
2022-11-02T12:56:54.512Z,99321.88
2022-11-02T12:59:34.750Z,99324.00
2022-11-02T13:02:55.066Z,99313.63
2022-11-02T13:05:41.182Z,99314.16
2022-11-02T13:08:25.296Z,99301.78
2022-11-02T13:11:04.454Z,99303.28
2022-11-02T13:13:44.233Z,99295.88
2022-11-02T13:16:14.604Z,99294.97
2022-11-02T13:18:55.175Z,99296.13
2022-11-02T13:21:44.139Z,99297.00
2022-11-02T13:24:23.915Z,99295.84
2022-11-02T13:26:57.419Z,99287.38
2022-11-02T13:29:50.786Z,99286.31
2022-11-02T13:33:00.662Z,99288.69
2022-11-02T13:35:38.177Z,99279.06
2022-11-02T13:38:46.480Z,99280.31
2022-11-02T13:42:06.519Z,99280.72
2022-11-02T13:45:22.767Z,99270.75
2022-11-02T13:48:24.991Z,99271.53
2022-11-02T13:50:57.660Z,99270.31
2022-11-02T13:53:45.123Z,99281.50
2022-11-02T13:56:22.697Z,99268.72
2022-11-02T13:59:03.948Z,99268.72
2022-11-02T14:01:37.309Z,99268.34
2022-11-02T14:04:10.414Z,99257.53
2022-11-02T14:07:09.365Z,99255.94
2022-11-02T14:09:42.850Z,99261.13
2022-11-02T14:12:29.500Z,99253.16
2022-11-02T14:15:15.429Z,99246.75
2022-11-02T14:17:54.944Z,99252.72
2022-11-02T14:20:47.334Z,99243.94
2022-11-02T14:23:14.531Z,99241.16
2022-11-02T14:25:53.874Z,99240.38
2022-11-02T14:28:24.735Z,99247.56
2022-11-02T14:31:06.256Z,99243.16
2022-11-02T14:34:32.787Z,99242.31
2022-11-02T14:37:48.562Z,99233.53
2022-11-02T14:40:54.311Z,99233.16
2022-11-02T14:44:20.574Z,99231.97
2022-11-02T14:47:07.006Z,99235.53
2022-11-02T14:49:57.021Z,99233.94
2022-11-02T14:52:35.899Z,99232.38
2022-11-02T14:55:28.213Z,99222.41
2022-11-02T14:58:20.313Z,99227.91
2022-11-02T15:00:50.653Z,99225.19
2022-11-02T15:03:29.136Z,99223.94
2022-11-02T15:06:25.504Z,99225.59
2022-11-02T15:09:04.373Z,99214.81
2022-11-02T15:12:02.611Z,99218.81
2022-11-02T15:14:35.523Z,99217.59
2022-11-02T15:17:24.203Z,99214.78
2022-11-02T15:20:14.366Z,99212.06
2022-11-02T15:22:54.752Z,99209.22
2022-11-02T15:25:37.318Z,99202.47
2022-11-02T15:28:22.419Z,99203.69
2022-11-02T15:30:59.798Z,99205.66
2022-11-02T15:33:44.224Z,99206.06
2022-11-02T15:36:41.736Z,99200.09
2022-11-02T15:39:12.662Z,99202.00
2022-11-02T15:42:27.563Z,99197.59
2022-11-02T15:45:56.593Z,99197.66
2022-11-02T15:49:02.584Z,99194.31
2022-11-02T15:52:10.925Z,99192.69
2022-11-02T15:55:19.351Z,99190.00
2022-11-02T15:58:39.782Z,99175.56
2022-11-02T16:01:25.195Z,99182.28
2022-11-02T16:04:07.066Z,99172.72
2022-11-02T16:06:44.507Z,99172.28
2022-11-02T16:09:39.374Z,99182.28
2022-11-02T16:12:25.052Z,99166.31
2022-11-02T16:15:20.388Z,99166.16
2022-11-02T16:17:51.178Z,99162.56
2022-11-02T16:20:34.081Z,99159.53
2022-11-02T16:23:05.451Z,99153.41
2022-11-02T16:25:44.756Z,99160.63
2022-11-02T16:28:35.481Z,99159.75
2022-11-02T16:31:25.110Z,99147.97
2022-11-02T16:33:57.263Z,99150.00
2022-11-02T16:36:35.204Z,99148.44
2022-11-02T16:39:30.445Z,99147.19
2022-11-02T16:42:00.588Z,99144.44
2022-11-02T16:44:34.990Z,99143.31
2022-11-02T16:47:08.303Z,99140.06
2022-11-02T16:49:50.954Z,99147.97
2022-11-02T16:52:38.598Z,99142.69
2022-11-02T16:55:43.502Z,99144.34
2022-11-02T16:58:22.600Z,99140.25
2022-11-02T17:01:05.501Z,99137.00
2022-11-02T17:03:34.783Z,99147.16
2022-11-02T17:06:07.528Z,99135.75
2022-11-02T17:08:39.151Z,99148.00
2022-11-02T17:11:14.487Z,99132.41
2022-11-02T17:13:56.911Z,99128.03
2022-11-02T17:16:24.255Z,99127.91
2022-11-02T17:18:51.590Z,99129.63
2022-11-02T17:21:28.878Z,99129.56
2022-11-02T17:23:59.117Z,99134.75
2022-11-02T17:26:36.687Z,99131.59
2022-11-02T17:29:26.549Z,99130.38
2022-11-02T17:31:58.012Z,99128.19
2022-11-02T17:34:25.576Z,99128.25
2022-11-02T17:36:53.420Z,99130.06
2022-11-02T17:39:21.210Z,99127.41
2022-11-02T17:42:16.492Z,99115.75
2022-11-02T17:44:47.704Z,99125.25
2022-11-02T17:47:19.654Z,99123.34
2022-11-02T17:49:46.982Z,99131.53
2022-11-02T17:52:16.487Z,99132.97
2022-11-02T17:54:43.965Z,99137.72
2022-11-02T17:57:15.614Z,99127.38
2022-11-02T17:59:42.935Z,99128.50
2022-11-02T18:02:15.853Z,99126.75
2022-11-02T18:07:30.917Z,99121.81
2022-11-02T18:09:58.285Z,99125.44
2022-11-02T18:12:25.543Z,99119.28
2022-11-02T18:14:52.808Z,99121.06
2022-11-02T18:17:20.099Z,99120.38
2022-11-02T18:19:47.361Z,99126.84
2022-11-02T18:22:15.552Z,99132.06
2022-11-02T18:24:43.113Z,99132.78
2022-11-02T18:27:10.373Z,99134.34
2022-11-02T18:29:38.071Z,99133.88
2022-11-02T18:32:05.491Z,99135.53
2022-11-02T18:34:32.831Z,99133.09
2022-11-02T18:37:00.306Z,99133.53
2022-11-02T18:39:27.554Z,99127.31
2022-11-02T18:41:54.853Z,99134.34
2022-11-02T18:44:22.945Z,99125.28
2022-11-02T18:46:50.202Z,99124.13
2022-11-02T18:49:17.450Z,99124.94
2022-11-02T18:51:45.741Z,99128.34
2022-11-02T18:54:13.146Z,99128.44
2022-11-02T18:56:40.431Z,99120.19
2022-11-02T18:59:07.761Z,99121.75
2022-11-02T19:01:35.322Z,99117.72
2022-11-02T19:04:03.655Z,99118.56
2022-11-02T19:06:54.098Z,99118.88
2022-11-02T19:09:26.655Z,99122.03
2022-11-02T19:12:16.344Z,99127.13
2022-11-02T19:14:47.637Z,99118.06
2022-11-02T19:17:15.560Z,99122.00
2022-11-02T19:19:45.473Z,99115.03
2022-11-02T19:22:23.406Z,99109.75
2022-11-02T19:24:51.843Z,99115.53
2022-11-02T19:27:25.456Z,99095.09
2022-11-02T19:29:52.865Z,99102.38
2022-11-02T19:32:21.138Z,99095.91
2022-11-02T19:34:48.517Z,99097.56
2022-11-02T19:37:15.788Z,99095.03
2022-11-02T19:39:43.049Z,99089.50
2022-11-02T19:42:10.649Z,99089.81
2022-11-02T19:44:42.536Z,99091.00
2022-11-02T19:47:14.178Z,99091.38
2022-11-02T19:49:41.427Z,99090.13
2022-11-02T19:52:10.511Z,99095.50
2022-11-02T19:54:37.869Z,99084.72
2022-11-02T19:57:05.118Z,99077.72
2022-11-02T19:59:32.380Z,99084.88
2022-11-02T20:02:00.488Z,99080.53
2022-11-02T20:04:27.868Z,99085.34
2022-11-02T20:06:55.194Z,99082.78
2022-11-02T20:09:22.519Z,99077.63
2022-11-02T20:11:49.948Z,99087.88
2022-11-02T20:14:18.453Z,99082.34
2022-11-02T20:16:58.348Z,99082.88
2022-11-02T20:19:32.003Z,99075.81
2022-11-02T20:21:59.270Z,99072.06
2022-11-02T20:24:29.166Z,99069.22
2022-11-02T20:27:02.608Z,99077.72
2022-11-02T20:29:30.137Z,99072.38
2022-11-02T20:31:57.383Z,99065.31
2022-11-02T20:34:24.779Z,99060.66
2022-11-02T20:36:52.113Z,99057.97
2022-11-02T20:39:19.681Z,99062.91
2022-11-02T20:41:47.940Z,99070.06
2022-11-02T20:44:17.006Z,99062.84
2022-11-02T20:46:52.790Z,99067.00
2022-11-02T20:49:48.322Z,99067.53
2022-11-02T20:52:10.853Z,99061.47
2022-11-02T20:54:38.164Z,99060.28
2022-11-02T20:57:06.013Z,99051.94
2022-11-02T20:59:35.944Z,99056.66
2022-11-02T21:02:03.310Z,99057.63
2022-11-02T21:04:30.695Z,99051.28
2022-11-02T21:06:57.971Z,99054.47
2022-11-02T21:09:25.291Z,99060.53
2022-11-02T21:12:11.187Z,99058.06
2022-11-02T21:14:38.466Z,99049.16
2022-11-02T21:17:07.427Z,99060.38
2022-11-02T21:19:34.743Z,99051.88
2022-11-02T21:22:02.550Z,99051.34
2022-11-02T21:24:29.903Z,99056.31
2022-11-02T21:26:58.265Z,99051.59
2022-11-02T21:29:25.627Z,99028.69
2022-11-02T21:31:52.958Z,99037.97
2022-11-02T21:34:20.235Z,99036.41
2022-11-02T21:36:48.717Z,99032.31
2022-11-02T21:39:16.242Z,99032.94
2022-11-02T21:41:43.762Z,99037.09
2022-11-02T21:44:11.993Z,99035.34
2022-11-02T21:46:39.280Z,99037.25
2022-11-02T21:49:06.691Z,99037.50
2022-11-02T21:51:34.798Z,99040.25
2022-11-02T21:54:04.051Z,99035.19
2022-11-02T21:56:32.006Z,99028.72
2022-11-02T21:58:59.529Z,99027.88
2022-11-02T22:01:49.426Z,99021.78
2022-11-02T22:04:31.615Z,99023.09
2022-11-02T22:07:02.024Z,99026.41
2022-11-02T22:09:29.803Z,99023.38
2022-11-02T22:12:16.024Z,99029.53
2022-11-02T22:14:44.844Z,99035.78
2022-11-02T22:17:43.122Z,99034.41
2022-11-02T22:20:02.730Z,99042.34
2022-11-02T22:22:30.104Z,99035.06
2022-11-02T22:24:57.418Z,99030.53
2022-11-02T22:27:24.726Z,99037.81
2022-11-02T22:29:51.989Z,99035.47
2022-11-02T22:32:19.255Z,99026.50
2022-11-02T22:34:46.903Z,99030.25
2022-11-02T22:37:32.843Z,99028.03
2022-11-02T22:40:00.913Z,99034.97
2022-11-02T22:42:28.176Z,99023.09
2022-11-02T22:44:58.345Z,99019.31
2022-11-02T22:47:25.624Z,99014.06
2022-11-02T22:49:52.935Z,99011.00
2022-11-02T22:52:20.219Z,99010.97
2022-11-02T22:54:47.844Z,99008.34
2022-11-02T22:57:15.175Z,99001.31
2022-11-02T22:59:42.446Z,99001.41
2022-11-02T23:02:10.559Z,98996.97
2022-11-02T23:04:37.877Z,98990.28
2022-11-02T23:07:05.151Z,98998.75
2022-11-02T23:09:32.422Z,98994.81
2022-11-02T23:11:59.675Z,99001.69
2022-11-02T23:14:26.927Z,99002.06
2022-11-02T23:16:54.420Z,99009.19
2022-11-02T23:19:28.253Z,98993.59
2022-11-02T23:22:32.051Z,98991.03
2022-11-02T23:25:18.910Z,98985.69
2022-11-02T23:28:16.667Z,98982.75
2022-11-02T23:31:03.403Z,98971.16
2022-11-02T23:33:37.011Z,98965.75
2022-11-02T23:36:12.630Z,98958.16
2022-11-02T23:39:03.102Z,98957.81
2022-11-02T23:41:33.897Z,98942.75
2022-11-02T23:44:18.847Z,98934.66
2022-11-02T23:46:51.056Z,98937.53
2022-11-02T23:49:19.296Z,98935.66
2022-11-02T23:52:05.170Z,98923.00
2022-11-02T23:54:51.132Z,98922.47
2022-11-02T23:57:19.279Z,98922.75
2022-11-02T23:59:46.530Z,98921.84
